Time;durP1;ratioP1;P1;durP2;ratioP2;P2;SDS_P1;SDS_P2;PMS_P1;PMS_P2;Temp;Humidity;BMP_temperature;BMP_pressure;BME280_temperature;BME280_humidity;BME280_pressure;Samples;Min_cycle;Max_cycle;Signal;HPM_P1;HPM_P2
2021/05/10 01:26:06;;;;;;;1.33;1.20;;;17.20;33.80;;;;;;5044334;28;20237;-89
2021/05/10 01:31:08;;;;;;;3.00;1.30;;;17.40;33.10;;;;;;5041406;22;20218;-88
2021/05/10 01:33:35;;;;;;;1.83;1.40;;;17.60;32.90;;;;;;5048707;28;20537;-89
2021/05/10 01:36:01;;;;;;;21.35;17.33;;;17.50;32.70;;;;;;5048191;28;20238;-88
2021/05/10 01:38:28;;;;;;;2.88;2.28;;;17.50;32.20;;;;;;5040135;28;20253;-88
2021/05/10 01:44:37;;;;;;;1.85;1.40;;;17.40;33.20;;;;;;5020536;28;20282;-88
2021/05/10 01:47:03;;;;;;;1.30;1.20;;;17.30;33.30;;;;;;5046241;28;20233;-88
2021/05/10 01:49:30;;;;;;;2.15;1.40;;;17.20;33.90;;;;;;5046994;28;20253;-88
2021/05/10 01:52:00;;;;;;;2.00;1.20;;;17.10;33.80;;;;;;5039644;28;20600;-88
2021/05/10 01:54:26;;;;;;;2.08;1.40;;;17.00;34.10;;;;;;5040427;28;20202;-88
2021/05/10 01:56:52;;;;;;;3.55;2.10;;;16.90;34.40;;;;;;5041418;28;20571;-88
2021/05/10 01:59:19;;;;;;;2.67;1.42;;;17.00;34.40;;;;;;5041497;28;20231;-88
2021/05/10 02:01:46;;;;;;;1.52;1.42;;;17.00;34.30;;;;;;5040523;28;20230;-88
2021/05/10 02:04:13;;;;;;;2.55;1.30;;;16.90;34.60;;;;;;5042109;28;20217;-88
2021/05/10 02:10:06;;;;;;;3.58;1.88;;;16.70;35.80;;;;;;5045916;28;20178;-89
2021/05/10 02:15:39;;;;;;;2.22;1.30;;;16.50;37.10;;;;;;5041796;28;20286;-89
2021/05/10 02:18:08;;;;;;;1.52;1.40;;;16.40;38.30;;;;;;5020549;28;20266;-88
2021/05/10 02:20:35;;;;;;;2.47;1.40;;;16.30;38.50;;;;;;5028658;28;20202;-88
2021/05/10 02:23:05;;;;;;;1.50;1.23;;;16.30;38.30;;;;;;5040547;28;20375;-89
2021/05/10 02:25:33;;;;;;;1.52;1.13;;;16.20;38.20;;;;;;5040101;28;20209;-89
2021/05/10 02:43:32;;;;;;;1.30;1.20;;;16.00;38.50;;;;;;5018011;28;20249;-89
2021/05/10 02:45:59;;;;;;;2.00;1.17;;;16.10;36.70;;;;;;5019070;28;20242;-89
2021/05/10 02:48:26;;;;;;;3.13;1.33;;;16.30;36.00;;;;;;5020711;28;20568;-89
2021/05/10 02:50:53;;;;;;;2.97;1.50;;;16.30;36.20;;;;;;5019247;28;20241;-90
2021/05/10 02:53:19;;;;;;;1.77;1.30;;;16.30;35.80;;;;;;5028637;28;20249;-90
2021/05/10 02:55:45;;;;;;;1.98;1.30;;;16.30;35.60;;;;;;5028281;28;20234;-88
2021/05/10 02:58:12;;;;;;;3.40;1.33;;;16.30;36.10;;;;;;5018463;28;20235;-89
2021/05/10 03:00:39;;;;;;;2.85;1.50;;;16.30;36.10;;;;;;5025588;28;20223;-88
2021/05/10 03:03:06;;;;;;;1.55;1.30;;;16.30;36.10;;;;;;5005054;28;20203;-88
2021/05/10 03:05:32;;;;;;;2.30;1.48;;;16.20;36.30;;;;;;5018339;28;20261;-89
2021/05/10 03:08:01;;;;;;;2.15;1.20;;;16.20;36.40;;;;;;5018997;28;20211;-90
2021/05/10 03:10:28;;;;;;;1.50;1.40;;;16.20;37.50;;;;;;5017694;28;20222;-89
2021/05/10 03:12:54;;;;;;;1.63;1.23;;;16.10;36.90;;;;;;5009573;28;20236;-89
2021/05/10 03:15:22;;;;;;;3.05;1.20;;;16.10;36.50;;;;;;4999106;28;20234;-89
2021/05/10 03:17:51;;;;;;;1.50;1.30;;;16.10;36.80;;;;;;5032871;28;20248;-89
2021/05/10 03:20:20;;;;;;;2.58;1.60;;;16.00;37.60;;;;;;5037990;28;20226;-89
2021/05/10 03:22:50;;;;;;;1.73;1.33;;;15.90;37.50;;;;;;5039658;28;20206;-88
2021/05/10 03:25:17;;;;;;;4.10;1.48;;;15.90;38.60;;;;;;5033365;28;20673;-88
2021/05/10 03:37:56;;;;;;;2.38;1.50;;;15.80;40.00;;;;;;5077383;28;20275;-89
2021/05/10 03:40:23;;;;;;;2.20;1.45;;;15.70;41.50;;;;;;5092370;28;20228;-88
2021/05/10 03:42:49;;;;;;;3.25;1.40;;;15.60;42.40;;;;;;5082295;28;20193;-89
2021/05/10 03:45:17;;;;;;;1.00;1.00;;;15.60;42.90;;;;;;5074102;28;20224;-89
2021/05/10 03:47:43;;;;;;;3.17;1.55;;;15.50;43.00;;;;;;5077869;28;20585;-89
2021/05/10 03:50:11;;;;;;;3.42;1.20;;;15.40;41.60;;;;;;5097592;28;20235;-89
2021/05/10 03:52:38;;;;;;;2.63;1.50;;;15.40;41.70;;;;;;5093533;28;20201;-89
2021/05/10 03:55:08;;;;;;;2.42;1.52;;;15.30;43.70;;;;;;5076780;28;20193;-88
2021/05/10 03:57:35;;;;;;;3.25;1.55;;;15.30;43.60;;;;;;5077514;28;20221;-88
2021/05/10 04:00:01;;;;;;;1.80;1.70;;;15.30;43.40;;;;;;5076910;28;20193;-88
2021/05/10 04:02:28;;;;;;;1.45;1.27;;;15.30;43.10;;;;;;5078533;28;20201;-88
2021/05/10 04:05:00;;;;;;;3.20;1.48;;;15.30;45.00;;;;;;5096456;28;20192;-89
2021/05/10 04:07:39;;;;;;;2.15;1.35;;;15.40;44.20;;;;;;5099033;28;20185;-88
2021/05/10 04:15:36;;;;;;;4.93;1.50;;;15.50;44.60;;;;;;5058508;28;20251;-89
2021/05/10 04:18:03;;;;;;;4.07;1.67;;;15.50;45.30;;;;;;5058727;28;20228;-88
2021/05/10 04:20:29;;;;;;;2.10;1.38;;;15.50;44.50;;;;;;5072907;28;20589;-88
2021/05/10 04:22:56;;;;;;;3.25;1.75;;;15.60;45.10;;;;;;5077234;28;20666;-89
2021/05/10 04:25:23;;;;;;;7.72;1.70;;;15.60;45.00;;;;;;5076974;28;20718;-89
2021/05/10 04:58:54;;;;;;;5.38;1.80;;;16.30;43.00;;;;;;5010917;28;20234;-89
2021/05/10 05:01:21;;;;;;;2.53;1.50;;;16.40;43.40;;;;;;5008218;28;20227;-89
2021/05/10 05:03:47;;;;;;;2.88;1.52;;;16.50;40.50;;;;;;5000461;28;20255;-89
2021/05/10 05:06:14;;;;;;;4.03;1.50;;;16.60;40.70;;;;;;5004799;28;20681;-89
2021/05/10 05:08:50;;;;;;;4.55;1.38;;;16.60;41.00;;;;;;5001250;28;20640;-89
2021/05/10 05:11:53;;;;;;;5.38;1.60;;;16.70;40.90;;;;;;5002450;28;20235;-88
2021/05/10 05:14:20;;;;;;;2.95;1.50;;;16.90;42.20;;;;;;5000794;28;20203;-91
2021/05/10 05:16:46;;;;;;;2.05;1.60;;;17.10;42.90;;;;;;5007281;28;20630;-92
2021/05/10 05:19:13;;;;;;;2.22;1.35;;;17.20;42.90;;;;;;5019762;28;20581;-91
2021/05/10 05:21:39;;;;;;;3.08;1.73;;;17.30;40.90;;;;;;5019932;28;20702;-91
2021/05/10 05:24:06;;;;;;;2.65;1.70;;;17.50;42.10;;;;;;5001062;28;20963;-91
2021/05/10 05:26:33;;;;;;;4.50;1.63;;;17.60;41.00;;;;;;5008946;28;20224;-92
2021/05/10 05:29:41;;;;;;;10.00;2.08;;;17.60;38.50;;;;;;5034268;28;20685;-91
2021/05/10 05:32:08;;;;;;;4.03;1.73;;;17.60;40.80;;;;;;5040612;28;20653;-93
2021/05/10 05:34:35;;;;;;;2.15;1.60;;;17.70;40.00;;;;;;5022434;28;20210;-89
2021/05/10 05:37:02;;;;;;;3.40;1.80;;;17.70;39.50;;;;;;5025728;28;20204;-87
2021/05/10 05:39:28;;;;;;;4.55;1.80;;;17.70;40.40;;;;;;5021428;28;20223;-87
2021/05/10 05:41:55;;;;;;;4.45;1.88;;;17.70;40.40;;;;;;5021056;28;20223;-89
2021/05/10 05:44:21;;;;;;;6.28;1.92;;;17.90;40.40;;;;;;5022439;28;20556;-86
2021/05/10 05:46:49;;;;;;;4.65;2.00;;;18.20;38.00;;;;;;5021709;28;20233;-86
2021/05/10 06:20:14;;;;;;;7.38;1.70;;;20.00;34.10;;;;;;5020666;28;20225;-91
2021/05/10 06:22:42;;;;;;;7.95;1.80;;;20.10;34.90;;;;;;5020598;28;20204;-90
2021/05/10 06:25:10;;;;;;;6.63;1.90;;;20.10;34.10;;;;;;5025957;28;20258;-84
2021/05/10 06:27:37;;;;;;;9.45;2.20;;;20.20;32.60;;;;;;5023514;28;20298;-86
2021/05/10 06:30:05;;;;;;;7.75;2.78;;;20.30;35.00;;;;;;5137952;22;20297;-87
2021/05/10 06:32:31;;;;;;;6.90;1.95;;;20.50;33.70;;;;;;5034276;28;20214;-87
2021/05/10 06:34:58;;;;;;;5.85;2.17;;;20.80;32.70;;;;;;5036506;28;20200;-86
2021/05/10 06:37:29;;;;;;;9.60;1.98;;;21.00;32.90;;;;;;5042372;28;20217;-86
2021/05/10 06:39:57;;;;;;;3.78;1.90;;;21.20;33.10;;;;;;5042443;28;20661;-84
2021/05/10 06:42:23;;;;;;;9.30;1.73;;;21.20;33.10;;;;;;5028321;28;20196;-88
2021/05/10 06:44:50;;;;;;;4.85;1.58;;;21.20;33.10;;;;;;5038996;28;20203;-89
2021/05/10 06:47:16;;;;;;;2.97;1.80;;;21.20;31.90;;;;;;5043221;28;20207;-86
2021/05/10 06:49:43;;;;;;;5.57;1.60;;;21.30;33.20;;;;;;5048379;28;20199;-87
2021/05/10 06:52:15;;;;;;;6.25;2.55;;;21.50;32.70;;;;;;5041414;28;20844;-86
2021/05/10 06:54:43;;;;;;;7.43;1.80;;;21.90;30.80;;;;;;5045707;28;20323;-86
2021/05/10 06:57:09;;;;;;;4.43;1.50;;;22.10;30.80;;;;;;5048694;28;20230;-86
2021/05/10 06:59:37;;;;;;;4.47;1.45;;;22.30;28.00;;;;;;5064666;28;20212;-86
2021/05/10 07:02:26;;;;;;;3.50;1.80;;;22.50;28.30;;;;;;5059365;28;20242;-86
2021/05/10 07:04:53;;;;;;;4.18;1.75;;;22.50;26.20;;;;;;5050149;28;20206;-87
2021/05/10 07:07:27;;;;;;;2.35;1.40;;;22.60;26.80;;;;;;5046096;28;20198;-86
2021/05/10 07:09:55;;;;;;;4.90;1.92;;;23.00;26.90;;;;;;5052770;28;20200;-87
2021/05/10 07:12:22;;;;;;;3.10;1.48;;;23.40;26.40;;;;;;5035553;28;20209;-86
2021/05/10 07:14:48;;;;;;;2.92;1.70;;;23.50;26.30;;;;;;5039769;28;20199;-87
2021/05/10 07:17:15;;;;;;;1.77;1.60;;;23.50;26.00;;;;;;5041041;28;20559;-86
2021/05/10 07:19:41;;;;;;;4.13;1.65;;;23.50;25.60;;;;;;5038008;28;20222;-88
2021/05/10 07:22:08;;;;;;;3.67;1.58;;;23.70;24.60;;;;;;5048425;28;20239;-86
2021/05/10 07:24:34;;;;;;;4.85;1.67;;;23.50;24.50;;;;;;5045444;28;20206;-89
2021/05/10 07:27:02;;;;;;;6.72;1.80;;;23.50;26.10;;;;;;5029835;28;20231;-85
2021/05/10 07:31:58;;;;;;;2.25;1.40;;;23.60;24.30;;;;;;5040569;28;20233;-86
2021/05/10 07:34:47;;;;;;;2.63;1.40;;;23.60;24.80;;;;;;5044882;28;20261;-86
2021/05/10 07:37:24;;;;;;;2.47;1.38;;;23.60;25.00;;;;;;5037288;28;20220;-88
2021/05/10 07:39:50;;;;;;;7.65;1.90;;;23.50;24.50;;;;;;5044695;28;20226;-87
2021/05/10 07:42:19;;;;;;;6.50;1.63;;;23.40;24.30;;;;;;5033631;28;20210;-89
2021/05/10 07:44:45;;;;;;;3.45;1.40;;;23.50;25.50;;;;;;5040642;28;20670;-88
2021/05/10 08:18:06;;;;;;;9.13;1.80;;;24.10;25.00;;;;;;5042357;28;20243;-89
2021/05/10 08:20:39;;;;;;;2.50;1.60;;;24.20;27.70;;;;;;5039918;28;20226;-89
2021/05/10 08:23:05;;;;;;;7.63;2.08;;;24.30;24.10;;;;;;5041630;28;20199;-88
2021/05/10 08:25:32;;;;;;;2.65;1.75;;;24.60;25.80;;;;;;5039034;28;20305;-89
2021/05/10 08:28:00;;;;;;;3.30;1.85;;;24.80;23.20;;;;;;5034980;28;20210;-88
2021/05/10 08:30:26;;;;;;;3.78;1.92;;;24.90;24.40;;;;;;5008895;28;20228;-90
2021/05/10 08:32:54;;;;;;;5.70;1.90;;;25.00;23.50;;;;;;5018738;28;20254;-88
2021/05/10 08:35:21;;;;;;;3.50;1.50;;;25.00;24.30;;;;;;5019500;28;20255;-89
2021/05/10 08:37:47;;;;;;;5.38;1.77;;;25.20;22.00;;;;;;5019356;28;20298;-90
2021/05/10 08:40:16;;;;;;;2.45;1.60;;;25.30;22.00;;;;;;5017780;28;20241;-88
2021/05/10 08:42:43;;;;;;;2.17;1.60;;;26.30;20.00;;;;;;5016569;28;20199;-85
2021/05/10 08:45:11;;;;;;;5.40;1.80;;;27.40;18.20;;;;;;5011579;28;20280;-88
2021/05/10 08:47:58;;;;;;;3.63;1.65;;;28.00;16.60;;;;;;5028937;28;20206;-89
2021/05/10 08:50:25;;;;;;;3.25;1.70;;;28.70;16.80;;;;;;5024993;28;20227;-90
2021/05/10 08:53:34;;;;;;;4.32;1.80;;;29.20;16.20;;;;;;5018055;28;20550;-89
2021/05/10 08:56:20;;;;;;;5.38;1.80;;;30.40;13.70;;;;;;5016905;28;20282;-89
2021/05/10 08:58:50;;;;;;;2.40;1.80;;;32.70;13.30;;;;;;5028364;28;20269;-89
2021/05/10 09:01:19;;;;;;;3.45;2.22;;;32.80;11.80;;;;;;5007379;28;20231;-91
2021/05/10 09:03:48;;;;;;;4.25;2.40;;;34.70;9.30;;;;;;5009168;28;20314;-89
2021/05/10 09:06:19;;;;;;;7.07;2.60;;;34.40;9.20;;;;;;5008810;28;20249;-88
2021/05/10 09:08:46;;;;;;;4.40;2.70;;;33.70;11.00;;;;;;5010007;28;20560;-90
2021/05/10 09:11:14;;;;;;;6.75;3.00;;;35.60;9.80;;;;;;5006842;28;20525;-90
2021/05/10 09:13:42;;;;;;;3.78;3.22;;;35.10;9.50;;;;;;5019739;28;20199;-92
2021/05/10 09:16:12;;;;;;;6.32;2.78;;;35.30;7.90;;;;;;5017982;28;20622;-92
2021/05/10 09:18:43;;;;;;;4.10;3.30;;;36.30;9.00;;;;;;5014340;28;20214;-91
2021/05/10 09:21:30;;;;;;;4.70;2.90;;;36.90;9.10;;;;;;5003588;28;20231;-91
2021/05/10 09:23:58;;;;;;;6.95;2.60;;;35.70;9.20;;;;;;5005912;28;20278;-89
2021/05/10 09:26:29;;;;;;;5.35;2.35;;;32.60;10.90;;;;;;5004766;28;20218;-87
2021/05/10 09:31:31;;;;;;;4.25;3.33;;;33.60;10.80;;;;;;6144319;22;20183;-90
2021/05/10 09:33:59;;;;;;;5.28;2.40;;;34.40;9.20;;;;;;5046509;28;20206;-90
2021/05/10 09:36:34;;;;;;;4.18;2.60;;;34.90;10.70;;;;;;5051908;28;20284;-89
2021/05/10 09:39:02;;;;;;;2.60;2.35;;;34.70;10.30;;;;;;5051457;28;20229;-89
2021/05/10 09:41:28;;;;;;;5.47;2.50;;;35.20;10.60;;;;;;5066349;28;20224;-88
2021/05/10 09:43:59;;;;;;;4.22;2.55;;;35.90;8.10;;;;;;5076680;28;20185;-88
2021/05/10 10:21:36;;;;;;;8.15;3.80;;;38.30;7.70;;;;;;5061256;28;20651;-91
2021/05/10 10:26:47;;;;;;;4.43;3.47;;;36.70;9.30;;;;;;5021571;28;20592;-92
2021/05/10 10:29:16;;;;;;;3.47;2.80;;;35.90;10.60;;;;;;5056884;28;20252;-91
2021/05/10 10:31:45;;;;;;;5.05;2.63;;;36.10;8.40;;;;;;5062800;28;20217;-90
2021/05/10 10:34:17;;;;;;;6.97;2.83;;;36.70;7.60;;;;;;5069382;28;20349;-89
2021/05/10 10:39:34;;;;;;;4.35;3.00;;;35.30;8.80;;;;;;5069766;28;20220;-90
2021/05/10 10:42:05;;;;;;;3.72;2.70;;;33.80;10.90;;;;;;5068798;28;20220;-90
2021/05/10 10:44:33;;;;;;;6.28;3.47;;;33.20;12.80;;;;;;5060685;28;20296;-90
2021/05/10 10:47:00;;;;;;;4.38;2.78;;;33.40;11.90;;;;;;5058262;28;20264;-90
2021/05/10 10:49:28;;;;;;;5.05;2.45;;;33.70;11.30;;;;;;5065111;28;20204;-88
2021/05/10 10:51:55;;;;;;;3.65;2.40;;;33.10;10.80;;;;;;5061155;28;20252;-88
2021/05/10 10:54:24;;;;;;;3.00;2.40;;;33.80;13.40;;;;;;5064894;28;20713;-89
2021/05/10 10:56:54;;;;;;;5.60;2.20;;;34.10;9.60;;;;;;5066822;28;20224;-88
2021/05/10 10:59:37;;;;;;;4.70;2.33;;;34.40;10.30;;;;;;5063287;28;20213;-88
2021/05/10 11:02:18;;;;;;;3.92;2.63;;;34.50;12.50;;;;;;5047917;28;20579;-91
2021/05/10 11:05:14;;;;;;;4.47;2.17;;;34.40;9.50;;;;;;5070465;28;20207;-91
2021/05/10 11:07:55;;;;;;;2.67;2.05;;;33.10;10.90;;;;;;5073287;28;20307;-89
2021/05/10 11:10:41;;;;;;;5.95;3.90;;;32.80;13.40;;;;;;5073824;28;20228;-88
2021/05/10 11:13:38;;;;;;;3.42;2.10;;;32.30;12.40;;;;;;5074031;28;20201;-87
2021/05/10 11:17:01;;;;;;;4.32;2.20;;;32.20;12.70;;;;;;5073634;28;20273;-90
2021/05/10 11:19:32;;;;;;;2.90;1.73;;;31.40;13.80;;;;;;5065668;28;20279;-86
2021/05/10 11:22:00;;;;;;;4.85;1.92;;;31.10;14.10;;;;;;5059205;28;20259;-86
2021/05/10 11:24:29;;;;;;;6.55;1.77;;;31.20;14.00;;;;;;5077780;28;20271;-85
2021/05/10 11:26:58;;;;;;;3.83;1.92;;;30.60;16.90;;;;;;5063866;28;20213;-86
2021/05/10 11:32:51;;;;;;;8.43;2.38;;;30.50;15.70;;;;;;5011538;28;20218;-89
2021/05/10 11:35:25;;;;;;;4.00;1.70;;;30.60;15.00;;;;;;5062476;28;20217;-90
2021/05/10 11:38:07;;;;;;;4.13;1.80;;;30.50;12.70;;;;;;5062569;28;20189;-89
2021/05/10 11:44:46;;;;;;;4.50;1.67;;;30.90;13.80;;;;;;5073344;28;20279;-89
2021/05/10 11:47:16;;;;;;;3.75;2.17;;;30.90;17.10;;;;;;5060004;28;20228;-89
2021/05/10 11:49:46;;;;;;;3.13;2.05;;;31.10;12.90;;;;;;5064652;28;20232;-89
2021/05/10 11:52:14;;;;;;;5.10;1.80;;;31.10;14.40;;;;;;5067321;28;20221;-88
2021/05/10 11:54:42;;;;;;;5.13;1.85;;;31.10;14.60;;;;;;5069966;28;20193;-88
2021/05/10 11:57:10;;;;;;;4.22;1.98;;;31.10;14.00;;;;;;5067964;28;20224;-89
2021/05/10 11:59:41;;;;;;;4.35;1.85;;;31.00;14.40;;;;;;5068312;28;20301;-88
2021/05/10 12:02:18;;;;;;;5.13;2.30;;;31.10;15.70;;;;;;5062465;28;20233;-89
2021/05/10 12:04:47;;;;;;;3.50;1.80;;;31.10;13.90;;;;;;5064334;28;20196;-89
2021/05/10 12:07:13;;;;;;;4.18;1.88;;;30.90;11.80;;;;;;5059260;28;20236;-89
2021/05/10 12:09:46;;;;;;;7.32;2.22;;;30.50;12.60;;;;;;5062580;28;20205;-89
2021/05/10 12:12:30;;;;;;;7.03;1.88;;;30.40;13.40;;;;;;5058757;28;20221;-89
2021/05/10 12:14:59;;;;;;;5.43;1.98;;;30.00;13.70;;;;;;5060722;28;20193;-88
2021/05/10 12:17:28;;;;;;;4.30;1.60;;;29.90;14.60;;;;;;5062630;28;20192;-89
2021/05/10 12:20:06;;;;;;;6.22;1.98;;;30.10;13.10;;;;;;5058685;28;20700;-89
2021/05/10 12:22:35;;;;;;;4.55;1.67;;;30.00;15.40;;;;;;5060150;28;20746;-90
2021/05/10 12:25:14;;;;;;;6.32;2.00;;;29.90;12.80;;;;;;5060905;28;20279;-89
2021/05/10 12:27:46;;;;;;;5.30;1.70;;;29.80;12.30;;;;;;5058063;28;20193;-89
2021/05/10 12:30:23;;;;;;;2.90;1.70;;;29.80;13.30;;;;;;5067980;28;20216;-90
2021/05/10 12:32:52;;;;;;;4.35;2.20;;;29.40;13.60;;;;;;5061254;28;20205;-90
2021/05/10 12:35:22;;;;;;;5.45;1.98;;;29.10;14.70;;;;;;5063135;28;20303;-86
2021/05/10 12:37:50;;;;;;;5.68;1.80;;;29.30;15.30;;;;;;5059607;28;20403;-86
2021/05/10 12:40:18;;;;;;;6.45;2.00;;;29.50;16.40;;;;;;5062035;28;20224;-86
2021/05/10 12:42:46;;;;;;;4.32;1.80;;;29.60;13.70;;;;;;5064428;28;20196;-87
2021/05/10 12:45:14;;;;;;;2.13;1.70;;;29.40;13.20;;;;;;5058713;28;20362;-86
2021/05/10 12:47:45;;;;;;;5.15;1.73;;;29.20;13.80;;;;;;5059680;28;20205;-88
2021/05/10 12:53:33;;;;;;;3.75;1.63;;;28.90;13.10;;;;;;5070703;28;20196;-88
2021/05/10 12:56:02;;;;;;;2.28;1.65;;;28.70;14.30;;;;;;5057500;28;20228;-88
2021/05/10 12:58:28;;;;;;;4.22;1.63;;;28.60;16.00;;;;;;5064495;28;20217;-88
2021/05/10 13:00:57;;;;;;;6.53;1.98;;;28.50;16.20;;;;;;5063965;28;20224;-89
2021/05/10 13:03:28;;;;;;;5.03;1.90;;;28.60;15.00;;;;;;5066985;28;20204;-86
2021/05/10 13:05:55;;;;;;;3.67;1.88;;;28.60;13.60;;;;;;5064087;28;20224;-89
2021/05/10 13:08:42;;;;;;;4.43;1.90;;;28.70;14.40;;;;;;5066507;28;20215;-87
2021/05/10 13:11:10;;;;;;;8.40;2.20;;;28.90;16.10;;;;;;5062036;28;20255;-87
2021/05/10 13:13:44;;;;;;;5.13;2.00;;;29.40;16.30;;;;;;5060541;28;20684;-89
2021/05/10 13:16:32;;;;;;;4.75;1.75;;;29.70;15.50;;;;;;5061495;28;20228;-90
2021/05/10 13:31:08;;;;;;;4.85;1.90;;;28.70;17.50;;;;;;5070113;28;20598;-89
2021/05/10 13:33:40;;;;;;;5.85;2.10;;;28.40;18.00;;;;;;5067841;28;20215;-89
2021/05/10 13:36:34;;;;;;;7.70;2.30;;;28.20;16.10;;;;;;5063757;28;20300;-89
2021/05/10 13:39:02;;;;;;;5.00;2.25;;;28.20;17.40;;;;;;5066259;28;20217;-89
2021/05/10 13:41:34;;;;;;;3.47;1.80;;;28.10;18.80;;;;;;5063786;28;20251;-88
2021/05/10 13:44:04;;;;;;;5.07;2.38;;;28.10;17.50;;;;;;5066903;28;20572;-88
2021/05/10 13:46:31;;;;;;;5.38;2.13;;;28.10;18.10;;;;;;5063238;28;20221;-87
2021/05/10 13:48:58;;;;;;;4.13;1.95;;;27.90;16.90;;;;;;5067656;28;20221;-87
2021/05/10 13:51:24;;;;;;;6.95;2.00;;;27.90;17.80;;;;;;5061754;28;20216;-88
2021/05/10 13:53:51;;;;;;;4.88;1.70;;;28.00;18.00;;;;;;5073349;28;20192;-87
2021/05/10 13:56:17;;;;;;;6.22;1.90;;;28.10;17.70;;;;;;5074349;28;20275;-87
2021/05/10 13:58:46;;;;;;;7.72;1.58;;;28.10;17.50;;;;;;5074824;28;20212;-86
2021/05/10 14:01:13;;;;;;;5.53;2.08;;;28.10;16.50;;;;;;5073275;28;20235;-88
2021/05/10 14:03:40;;;;;;;5.53;1.90;;;28.10;15.90;;;;;;5077479;28;20197;-87
2021/05/10 14:06:06;;;;;;;5.93;2.03;;;28.30;15.80;;;;;;5074170;28;20743;-87
2021/05/10 14:08:33;;;;;;;5.57;2.00;;;28.50;17.70;;;;;;5072780;28;20200;-87
2021/05/10 14:11:00;;;;;;;6.95;1.70;;;28.60;17.40;;;;;;5067779;28;20312;-87
2021/05/10 14:13:26;;;;;;;5.82;2.00;;;28.70;16.90;;;;;;5046800;28;20644;-86
2021/05/10 14:15:54;;;;;;;3.75;1.88;;;28.80;16.00;;;;;;5059944;28;20688;-86
2021/05/10 14:18:24;;;;;;;7.07;2.13;;;28.90;16.10;;;;;;5056366;28;20196;-86
2021/05/10 14:27:29;;;;;;;6.20;1.95;;;28.90;16.10;;;;;;5059466;28;20376;-86
2021/05/10 14:32:33;;;;;;;8.90;2.10;;;28.90;16.20;;;;;;5074600;22;20580;-87
2021/05/10 14:34:59;;;;;;;8.18;2.28;;;28.90;16.10;;;;;;5076051;28;20189;-87
2021/05/10 14:37:26;;;;;;;4.75;2.08;;;28.80;16.10;;;;;;5077884;28;20209;-87
2021/05/10 14:39:59;;;;;;;7.05;1.90;;;28.70;16.00;;;;;;5070280;28;20643;-87
2021/05/10 14:42:30;;;;;;;8.05;2.17;;;28.60;16.00;;;;;;5055450;28;20262;-90
2021/05/10 14:44:56;;;;;;;4.28;1.90;;;28.50;15.90;;;;;;5054885;28;20198;-91
2021/05/10 14:47:23;;;;;;;7.43;1.98;;;28.40;15.80;;;;;;5041666;28;20616;-89
2021/05/10 14:49:52;;;;;;;9.27;2.25;;;28.40;16.70;;;;;;5059359;28;20205;-90
2021/05/10 14:52:50;;;;;;;7.43;2.35;;;28.50;15.90;;;;;;5069161;28;20200;-91
2021/05/10 14:55:16;;;;;;;6.20;2.00;;;28.60;15.90;;;;;;5052110;28;20692;-89
2021/05/10 14:57:43;;;;;;;8.45;1.95;;;28.50;15.90;;;;;;5054904;28;20202;-91
2021/05/10 15:00:10;;;;;;;6.75;2.53;;;28.20;15.70;;;;;;5063976;28;20225;-88
2021/05/10 15:02:37;;;;;;;4.30;2.15;;;28.30;15.80;;;;;;5059981;28;20528;-90
2021/05/10 15:05:05;;;;;;;8.75;2.45;;;28.30;15.80;;;;;;5055524;28;20284;-90
2021/05/10 15:07:33;;;;;;;6.47;1.90;;;28.40;15.90;;;;;;5050046;28;20202;-88
2021/05/10 15:09:59;;;;;;;4.75;2.38;;;28.20;15.80;;;;;;5058225;28;20616;-85
2021/05/10 15:12:27;;;;;;;5.80;2.33;;;27.80;15.60;;;;;;5062380;28;20208;-85
2021/05/10 15:14:54;;;;;;;12.35;2.47;;;27.60;15.50;;;;;;5070862;28;20208;-87
2021/05/10 15:17:20;;;;;;;7.93;2.17;;;27.40;15.30;;;;;;5061232;28;20194;-86
2021/05/10 15:19:47;;;;;;;4.43;2.00;;;27.20;15.70;;;;;;5062557;28;20228;-84
2021/05/10 15:22:14;;;;;;;4.07;2.00;;;27.20;17.00;;;;;;5056934;28;20231;-84
2021/05/10 15:24:40;;;;;;;5.63;2.10;;;27.20;16.70;;;;;;5057146;28;21621;-86
2021/05/10 15:27:08;;;;;;;5.82;2.42;;;27.20;17.50;;;;;;5059702;28;20241;-87
2021/05/10 15:29:35;;;;;;;8.57;1.90;;;27.20;17.10;;;;;;5069755;28;20224;-88
2021/05/10 15:32:01;;;;;;;5.00;2.40;;;27.30;16.90;;;;;;5074395;28;20225;-85
2021/05/10 15:34:28;;;;;;;7.03;2.38;;;27.20;16.40;;;;;;5087055;28;20339;-86
2021/05/10 15:36:55;;;;;;;8.02;2.42;;;27.10;16.30;;;;;;5073134;28;20366;-84
2021/05/10 15:39:22;;;;;;;6.72;2.25;;;27.10;17.50;;;;;;5077026;28;20226;-89
2021/05/10 15:41:49;;;;;;;8.10;2.40;;;27.00;16.50;;;;;;5073122;28;20264;-89
2021/05/10 15:44:16;;;;;;;9.38;2.28;;;26.80;17.10;;;;;;5074302;28;20213;-88
2021/05/10 15:46:42;;;;;;;7.10;2.17;;;26.60;17.50;;;;;;5074886;28;20217;-90
2021/05/10 15:49:10;;;;;;;5.63;2.58;;;26.50;18.10;;;;;;5068158;28;20216;-89
2021/05/10 15:51:45;;;;;;;6.90;2.10;;;26.50;18.20;;;;;;5070585;28;20229;-89
2021/05/10 15:54:12;;;;;;;5.25;1.88;;;26.40;18.30;;;;;;5078734;28;20192;-89
2021/05/10 15:56:40;;;;;;;7.20;2.05;;;26.50;18.20;;;;;;5072994;28;20374;-89
2021/05/10 15:59:07;;;;;;;5.78;1.98;;;26.50;19.40;;;;;;5077773;28;20296;-89
2021/05/10 16:01:33;;;;;;;6.72;2.25;;;26.50;18.90;;;;;;5074731;28;20563;-89
2021/05/10 16:04:15;;;;;;;6.60;1.88;;;26.40;20.90;;;;;;5076803;28;20288;-90
2021/05/10 16:06:42;;;;;;;8.95;2.70;;;26.40;19.60;;;;;;5070812;28;20216;-92
2021/05/10 16:09:08;;;;;;;4.22;2.28;;;26.40;19.30;;;;;;5071615;28;20200;-90
2021/05/10 16:11:35;;;;;;;7.30;2.40;;;26.30;19.50;;;;;;5072942;28;20746;-91
2021/05/10 16:16:43;;;;;;;5.28;2.13;;;26.10;20.00;;;;;;5071590;28;20228;-91
2021/05/10 16:19:10;;;;;;;5.97;2.30;;;25.90;20.60;;;;;;5071366;28;20229;-91
2021/05/10 16:21:37;;;;;;;7.47;2.08;;;25.80;21.20;;;;;;5072800;28;20262;-91
2021/05/10 16:24:04;;;;;;;8.27;2.50;;;25.70;20.40;;;;;;5068835;28;20206;-89
2021/05/10 16:26:31;;;;;;;10.35;2.50;;;25.60;20.20;;;;;;5075460;28;20235;-89
2021/05/10 16:28:59;;;;;;;6.35;2.20;;;25.60;20.70;;;;;;5075559;28;20228;-86
2021/05/10 16:31:26;;;;;;;6.07;2.40;;;25.60;21.00;;;;;;5069987;28;20232;-85
2021/05/10 16:33:53;;;;;;;6.43;2.60;;;25.50;20.40;;;;;;5073393;28;20202;-89
2021/05/10 16:36:20;;;;;;;3.63;2.15;;;25.50;21.30;;;;;;5062037;28;20225;-88
2021/05/10 16:38:46;;;;;;;9.23;2.40;;;25.50;21.30;;;;;;5067512;28;20224;-91
2021/05/10 16:41:12;;;;;;;6.57;2.65;;;25.40;21.20;;;;;;5068956;28;20236;-91
2021/05/10 16:43:39;;;;;;;5.45;2.20;;;25.30;21.50;;;;;;5080146;28;20205;-92
2021/05/10 16:51:57;;;;;;;7.40;2.30;;;25.00;23.00;;;;;;5064310;28;20255;-93
2021/05/10 16:54:48;;;;;;;4.95;1.90;;;24.90;22.60;;;;;;5079661;28;20216;-90
2021/05/10 16:57:14;;;;;;;8.13;2.38;;;24.90;22.60;;;;;;5078501;28;20201;-91
2021/05/10 16:59:41;;;;;;;6.10;2.10;;;24.90;21.90;;;;;;5078820;28;20216;-89
2021/05/10 17:02:07;;;;;;;6.63;2.40;;;24.80;22.80;;;;;;5080099;28;20219;-86
2021/05/10 17:04:34;;;;;;;8.25;2.20;;;24.80;23.60;;;;;;5082093;28;20207;-87
2021/05/10 17:07:01;;;;;;;5.40;2.63;;;24.70;23.70;;;;;;5079601;28;20224;-88
2021/05/10 17:09:27;;;;;;;5.50;2.63;;;24.60;23.70;;;;;;5074896;28;20202;-87
2021/05/10 17:11:54;;;;;;;5.70;2.78;;;24.60;22.90;;;;;;5082460;28;20312;-84
2021/05/10 17:14:20;;;;;;;9.02;2.88;;;24.50;23.60;;;;;;5080779;28;20205;-86
2021/05/10 17:16:46;;;;;;;6.25;2.22;;;24.40;24.30;;;;;;5079871;28;20817;-88
2021/05/10 17:19:13;;;;;;;7.32;2.40;;;24.40;24.00;;;;;;5085280;28;20221;-87
2021/05/10 17:21:40;;;;;;;4.63;2.40;;;24.30;23.90;;;;;;5078852;28;20573;-89
2021/05/10 17:24:08;;;;;;;3.92;2.22;;;24.20;23.80;;;;;;5059673;28;20728;-91
2021/05/10 17:26:51;;;;;;;13.30;2.42;;;24.10;24.10;;;;;;5068859;28;20634;-89
2021/05/10 17:29:18;;;;;;;8.25;3.13;;;24.00;25.40;;;;;;5070358;28;20229;-90
2021/05/10 17:31:45;;;;;;;7.03;2.88;;;24.00;25.30;;;;;;5071202;28;20305;-92
2021/05/10 17:34:12;;;;;;;8.82;2.85;;;23.90;26.50;;;;;;5074498;28;20197;-90
2021/05/10 17:36:38;;;;;;;8.85;3.22;;;23.80;27.10;;;;;;5065511;28;20221;-87
2021/05/10 17:39:10;;;;;;;6.22;2.60;;;23.70;27.70;;;;;;5075356;28;20217;-89
2021/05/10 17:41:39;;;;;;;7.45;2.60;;;23.60;26.60;;;;;;5068381;28;20224;-89
2021/05/10 17:44:06;;;;;;;5.38;3.65;;;23.50;35.00;;;;;;5069468;28;20210;-87
2021/05/10 17:46:33;;;;;;;8.05;3.03;;;23.50;35.00;;;;;;5080576;28;20247;-88
2021/05/10 17:49:04;;;;;;;7.35;3.30;;;23.40;35.00;;;;;;5075794;28;20281;-89
2021/05/10 17:51:31;;;;;;;12.95;2.95;;;23.40;38.00;;;;;;5078451;28;20221;-89
2021/05/10 17:53:57;;;;;;;5.18;2.40;;;23.40;39.40;;;;;;5080583;28;20201;-90
2021/05/10 17:56:26;;;;;;;10.60;2.97;;;23.30;40.10;;;;;;5076641;28;20236;-92
2021/05/10 17:58:52;;;;;;;7.80;2.78;;;23.20;42.50;;;;;;5079085;28;20232;-87
2021/05/10 18:04:01;;;;;;;41.15;33.75;;;23.00;43.30;;;;;;5081848;28;20256;-86
2021/05/10 18:06:28;;;;;;;10.00;5.43;;;22.90;44.60;;;;;;5081812;28;20220;-84
2021/05/10 18:08:54;;;;;;;10.48;6.03;;;22.80;46.10;;;;;;5078085;28;20197;-84
2021/05/10 18:11:22;;;;;;;10.93;6.57;;;22.70;46.20;;;;;;5074792;28;20272;-85